EGNXEGNS

Guest
Details From EGNX - East Midlands
To EGNS - Isle Of Man Ronaldsway
Flight Number -
Tags generated
Created
Modified
Stats Distance 140 nm / 259 km
Max Altitude 14,200 ft / 4,328 m
Waypoints 3
Social Downloads 1
Likes 0
Share VATSIM

Download

Looking for another format? Having issues loading an existing format? Contact us
Advertisement - Login to hide

Notes

Basic altitude profile: - Ascent Rate: 2500ft/min - Ascent Speed: 250kts - Cruise Altitude: 35000ft - Cruise Speed: 420kts - Descent Rate: 1500ft/min - Descent Speed: 250kts

Route

EGNX ASNIP EGNS

ID Type Via Altitude Latitude Longitude Leg Dist Tot Dist Heading (true) Name
O EGNX APT - 0 ft / 0 m 52.83100˚ -1.32815˚ - 0 nm - East Midlands
ASNIP FIX - 14,200 ft / 4,328 m 53.47861˚ -2.90722˚ 68 nm 68 nm 305° / 304° -
O EGNS APT - 0 ft / 0 m 54.08283˚ -4.62548˚ 70 nm 139 nm 301° / 300° Isle Of Man Ronaldsway

Altitude Profile

Advertisement - Login to hide

EGNX

Details ICAO EGNX (EMA)
Name East Midlands
Region United Kingdom
Timezone Europe/London (UTC+1.0)
Stats Elevation 306 ft / 93 m (AMSL)
Location 52.830999° -1.328155°
Runways 1
Magnetic Variation 0.967° W

METAR

EGNX 230420Z 03009KT 300V100 9000 BKN013 09/07 Q1024

Decode

TAF

TAF AMD EGNX 230229Z 2302/2324 03009KT 9999 BKN012 BECMG 2303/2306 7000 PROB40 2303/2308 3000 BR BKN005 BECMG 2308/2311 9999 FEW045

Decode

Departure Runways

ID Width Length Bearing (true) Bearing (mag) Surface Threshold Offset Overrun Length
09 151 ft / 46 m 9,462 ft / 2,884 m 88.25° 89.22° Asphalt 587 ft / 179 m 92 ft / 28 m
27 151 ft / 46 m 9,462 ft / 2,884 m 268.29° 269.26° Asphalt 423 ft / 129 m 98 ft / 30 m

EGNS

Details ICAO EGNS (IOM)
Name Isle Of Man Ronaldsway
Region United Kingdom
Timezone Europe/Isle_of_Man (UTC+1.0)
Stats Elevation 52 ft / 16 m (AMSL)
Location 54.082833° -4.625475°
Runways 2
Magnetic Variation 2.417° W

METAR

EGNS 230350Z 04005KT CAVOK 08/07 Q1025 NOSIG

Decode

TAF

Not found

Destination Runways

ID Width Length Bearing (true) Bearing (mag) Surface Threshold Offset Overrun Length
03 151 ft / 46 m 4,113 ft / 1,254 m 27.91° 30.33° Asphalt 492 ft / 150 m 0 ft / 0 m
08 151 ft / 46 m 6,016 ft / 1,834 m 77.93° 80.35° Asphalt 545 ft / 166 m 0 ft / 0 m
21 151 ft / 46 m 4,113 ft / 1,254 m 207.92° 210.34° Asphalt 0 ft / 0 m 0 ft / 0 m
26 151 ft / 46 m 6,016 ft / 1,834 m 257.95° 260.37° Asphalt 486 ft / 148 m 0 ft / 0 m

Approach Navaids

Runway Type Ident Frequency Range Bearing (true) Bearing (mag) Slope Elevation
08 Localiser IRH 111.15 MHz 18 nm / 33 km 82.35° 84.77° - 29 ft / 9 m (AMSL)
08 Glidescope IRH 111.15 MHz 10 nm / 19 km 82.35° 84.77° 3.00° 33 ft / 10 m (AMSL)
08 DME IRH 111.15 MHz 18 nm / 33 km - - - 33 ft / 10 m (AMSL)
26 Localiser IRY 111.15 MHz 18 nm / 33 km 257.92° 260.34° - 29 ft / 9 m (AMSL)
26 Glidescope IRY 111.15 MHz 10 nm / 19 km 257.94° 260.36° 3.00° 33 ft / 10 m (AMSL)
26 DME IRY 111.15 MHz 18 nm / 33 km - - - 33 ft / 10 m (AMSL)

Popular Alternatives